Terminal Aerodrome Forecast
Issued by NWS

Home | Current Version | Previous Version | Text Only | Print | Product List | Glossary On
Versions: 1 2 3 4 5 6 7 8 9 10 11 12 13 14 15 16 17 18 19 20 21
000
FTUS41 KBTV 231736
TAFRUT
TAF
KRUT 231736Z 2318/2418 33010G16KT 6SM -RA BKN005 OVC020
      TEMPO 2318/2322 3SM -RA BR SCT005 OVC020
     FM240000 34009KT 6SM -RA BR OVC006
     FM241600 33009KT P6SM -RA OVC010
      AMD LTD TO CLD VIS AND WIND=

USA.gov is the U.S. government's official web portal to all federal, state and local government web resources and services.